createdAt,value
2019-05-12T00:02:00.977Z,12.20
2019-05-12T00:04:28.032Z,12.10
2019-05-12T00:06:54.383Z,12.10
2019-05-12T00:09:20.610Z,12.00
2019-05-12T00:11:48.447Z,11.90
2019-05-12T00:14:17.805Z,11.90
2019-05-12T00:16:44.359Z,15.10
2019-05-12T00:19:10.627Z,11.80
2019-05-12T00:21:39.588Z,11.90
2019-05-12T00:24:10.915Z,11.80
2019-05-12T00:26:41.133Z,11.80
2019-05-12T00:29:07.775Z,11.70
2019-05-12T00:31:34.080Z,11.70
2019-05-12T00:34:00.288Z,11.70
2019-05-12T00:36:29.047Z,11.60
2019-05-12T00:38:54.569Z,11.50
2019-05-12T00:41:20.717Z,11.50
2019-05-12T00:43:48.733Z,11.40
2019-05-12T00:46:14.964Z,11.40
2019-05-12T00:48:41.202Z,11.30
2019-05-12T00:51:07.766Z,11.30
2019-05-12T00:53:39.860Z,11.20
2019-05-12T00:56:02.221Z,11.20
2019-05-12T00:58:28.782Z,11.10
2019-05-12T01:00:54.963Z,11.10
2019-05-12T01:05:48.491Z,11.00
2019-05-12T01:08:14.957Z,10.90
2019-05-12T01:10:41.116Z,10.90
2019-05-12T01:13:08.590Z,10.80
2019-05-12T01:15:37.567Z,10.80
2019-05-12T01:18:03.643Z,10.70
2019-05-12T01:20:29.931Z,10.70
2019-05-12T01:22:58.008Z,10.70
2019-05-12T01:25:24.344Z,10.70
2019-05-12T01:27:50.486Z,10.70
2019-05-12T01:30:24.141Z,10.70
2019-05-12T01:32:50.295Z,10.70
2019-05-12T01:35:18.509Z,10.60
2019-05-12T01:37:44.828Z,10.70
2019-05-12T01:40:11.534Z,10.70
2019-05-12T01:42:38.216Z,10.70
2019-05-12T01:45:05.399Z,10.60
2019-05-12T01:47:31.572Z,10.70
2019-05-12T01:49:58.203Z,10.70
2019-05-12T01:52:24.542Z,10.70
2019-05-12T01:54:50.752Z,10.70
2019-05-12T01:57:18.838Z,10.60
2019-05-12T01:59:45.064Z,10.70
2019-05-12T02:02:11.178Z,10.70
2019-05-12T02:04:55.969Z,10.60
2019-05-12T02:07:22.189Z,10.60
2019-05-12T02:09:48.452Z,10.70
2019-05-12T02:12:14.639Z,10.70
2019-05-12T02:14:41.060Z,10.70
2019-05-12T02:17:08.786Z,10.60
2019-05-12T02:19:35.122Z,10.60
2019-05-12T02:22:01.334Z,10.60
2019-05-12T02:24:30.469Z,10.70
2019-05-12T02:26:57.768Z,10.70
2019-05-12T02:29:23.753Z,10.70
2019-05-12T02:31:50.342Z,10.60
2019-05-12T02:34:16.528Z,10.70
2019-05-12T02:36:44.876Z,10.70
2019-05-12T02:39:10.813Z,10.70
2019-05-12T02:41:37.151Z,10.70
2019-05-12T02:44:05.255Z,10.70
2019-05-12T02:46:34.607Z,10.70
2019-05-12T02:48:59.503Z,10.70
2019-05-12T02:51:26.082Z,10.70
2019-05-12T02:53:54.550Z,10.70
2019-05-12T02:56:25.618Z,10.70
2019-05-12T02:58:54.332Z,10.80
2019-05-12T03:01:24.021Z,10.80
2019-05-12T03:03:54.935Z,10.80
2019-05-12T03:06:25.168Z,10.80
2019-05-12T03:08:54.943Z,10.80
2019-05-12T03:11:19.939Z,10.80
2019-05-12T03:13:46.083Z,10.80
2019-05-12T03:16:14.941Z,10.80
2019-05-12T03:18:40.665Z,10.90
2019-05-12T03:21:06.964Z,10.90
2019-05-12T03:23:35.266Z,10.80
2019-05-12T03:26:05.246Z,10.90
2019-05-12T03:28:30.542Z,10.80
2019-05-12T03:30:57.975Z,10.90
2019-05-12T03:33:33.447Z,10.90
2019-05-12T03:36:00.196Z,10.90
2019-05-12T03:38:20.961Z,10.90
2019-05-12T03:40:47.102Z,10.90
2019-05-12T03:43:14.471Z,10.80
2019-05-12T03:45:41.147Z,10.80
2019-05-12T03:48:07.396Z,10.90
2019-05-12T03:50:35.396Z,10.80
2019-05-12T03:53:06.346Z,10.80
2019-05-12T03:55:36.096Z,10.90
2019-05-12T03:57:58.145Z,10.90
2019-05-12T04:00:24.895Z,10.80
2019-05-12T04:02:51.234Z,10.80
2019-05-12T04:05:17.379Z,10.80
2019-05-12T04:07:45.035Z,10.80
2019-05-12T04:10:11.565Z,10.80
2019-05-12T04:12:37.797Z,10.80
2019-05-12T04:15:05.466Z,10.80
2019-05-12T04:17:34.703Z,10.80
2019-05-12T04:19:59.935Z,10.80
2019-05-12T04:22:26.224Z,10.80
2019-05-12T04:24:55.143Z,10.90
2019-05-12T04:27:20.417Z,10.80
2019-05-12T04:29:46.640Z,10.80
2019-05-12T04:32:14.421Z,10.90
2019-05-12T04:34:41.160Z,10.90
2019-05-12T04:37:07.353Z,10.90
2019-05-12T04:39:34.188Z,10.90
2019-05-12T04:42:00.423Z,11.00
2019-05-12T04:44:26.618Z,11.00
2019-05-12T04:46:55.374Z,11.00
2019-05-12T04:49:24.692Z,11.00
2019-05-12T04:51:49.224Z,11.00
2019-05-12T04:54:15.671Z,11.00
2019-05-12T04:56:44.613Z,11.00
2019-05-12T04:59:10.101Z,11.00
2019-05-12T05:01:36.253Z,11.10
2019-05-12T05:04:05.333Z,11.10
2019-05-12T05:06:30.800Z,11.10
2019-05-12T05:08:57.020Z,11.10
2019-05-12T05:11:25.038Z,11.10
2019-05-12T05:13:51.298Z,11.10
2019-05-12T05:16:17.431Z,11.10
2019-05-12T05:18:44.083Z,11.10
2019-05-12T05:21:10.591Z,11.20
2019-05-12T05:23:37.140Z,11.20
2019-05-12T05:26:03.404Z,11.20
2019-05-12T05:28:29.615Z,11.20
2019-05-12T05:30:55.826Z,11.20
2019-05-12T05:33:23.809Z,11.30
2019-05-12T05:35:50.107Z,11.30
2019-05-12T05:38:20.484Z,11.30
2019-05-12T05:40:44.428Z,11.30
2019-05-12T05:43:13.077Z,11.40
2019-05-12T05:45:38.709Z,11.40
2019-05-12T05:48:09.795Z,11.40
2019-05-12T05:50:34.306Z,11.50
2019-05-12T05:53:00.585Z,11.50
2019-05-12T05:55:26.869Z,11.50
2019-05-12T05:57:53.580Z,11.60
2019-05-12T06:00:23.818Z,11.70
2019-05-12T06:02:49.054Z,11.80
2019-05-12T06:05:15.315Z,11.80
2019-05-12T06:07:44.261Z,11.90
2019-05-12T06:10:11.056Z,11.90
2019-05-12T06:12:40.432Z,12.00
2019-05-12T06:15:08.705Z,12.00
2019-05-12T06:17:34.187Z,12.00
2019-05-12T06:20:04.205Z,12.10
2019-05-12T06:22:29.884Z,12.20
2019-05-12T06:24:58.899Z,12.20
2019-05-12T06:27:24.435Z,12.30
2019-05-12T06:29:52.492Z,12.30
2019-05-12T06:32:18.793Z,12.40
2019-05-12T06:34:45.015Z,12.40
2019-05-12T06:37:12.327Z,12.50
2019-05-12T06:39:39.355Z,12.60
2019-05-12T06:42:12.641Z,12.60
2019-05-12T06:44:34.008Z,12.70
2019-05-12T06:47:03.488Z,12.80
2019-05-12T06:49:28.299Z,12.90
2019-05-12T06:52:01.567Z,13.00
2019-05-12T06:54:24.628Z,13.10
2019-05-12T06:56:57.862Z,13.30
2019-05-12T06:59:18.722Z,13.40
2019-05-12T07:01:45.184Z,13.60
2019-05-12T07:04:11.372Z,13.80
2019-05-12T07:06:37.580Z,14.00
2019-05-12T07:09:09.781Z,14.20
2019-05-12T07:11:42.467Z,14.40
2019-05-12T07:14:07.840Z,14.70
2019-05-12T07:16:33.985Z,15.00
2019-05-12T07:19:00.034Z,15.30
2019-05-12T07:21:27.396Z,15.70
2019-05-12T07:23:54.060Z,16.10
2019-05-12T07:26:20.569Z,16.50
2019-05-12T07:28:46.724Z,16.60
2019-05-12T07:31:14.222Z,16.90
2019-05-12T07:33:41.764Z,17.10
2019-05-12T07:36:09.449Z,17.20
2019-05-12T07:38:36.601Z,17.30
2019-05-12T07:41:08.807Z,17.30
2019-05-12T07:43:33.759Z,17.40
2019-05-12T07:46:07.174Z,17.50
2019-05-12T07:48:33.407Z,17.70
2019-05-12T07:51:00.782Z,17.90
2019-05-12T07:53:27.205Z,18.10
2019-05-12T07:55:53.725Z,18.30
2019-05-12T07:58:20.067Z,18.40
2019-05-12T08:00:46.285Z,18.70
2019-05-12T08:03:20.900Z,18.90
2019-05-12T08:05:40.574Z,19.20
2019-05-12T08:08:10.630Z,19.40
2019-05-12T08:10:34.920Z,19.70
2019-05-12T08:13:04.361Z,19.90
2019-05-12T08:15:30.662Z,20.10
2019-05-12T08:17:59.513Z,20.30
2019-05-12T08:20:25.243Z,20.40
2019-05-12T08:22:54.017Z,20.50
2019-05-12T08:25:27.112Z,20.50
2019-05-12T08:27:51.361Z,20.50
2019-05-12T08:30:30.376Z,20.50
2019-05-12T08:33:03.823Z,20.40
2019-05-12T08:35:29.022Z,20.30
2019-05-12T08:37:54.401Z,20.20
2019-05-12T08:40:20.658Z,20.10
2019-05-12T08:42:47.168Z,20.00
2019-05-12T08:45:22.439Z,19.90
2019-05-12T08:47:43.882Z,19.80
2019-05-12T08:50:09.968Z,19.70
2019-05-12T08:52:41.338Z,19.70
2019-05-12T08:55:04.782Z,19.70
2019-05-12T08:57:34.858Z,19.80
2019-05-12T09:02:27.727Z,19.90
2019-05-12T09:04:55.715Z,20.10
2019-05-12T09:07:24.268Z,20.30
2019-05-12T09:09:50.549Z,20.60
2019-05-12T09:12:17.319Z,20.80
2019-05-12T09:14:46.351Z,21.10
2019-05-12T09:17:13.513Z,21.40
2019-05-12T09:19:40.058Z,21.90
2019-05-12T09:27:05.002Z,23.90
2019-05-12T09:29:29.784Z,24.70
2019-05-12T09:31:59.370Z,25.50
2019-05-12T09:34:24.064Z,26.20
2019-05-12T09:36:51.993Z,27.00
2019-05-12T09:39:18.802Z,27.70
2019-05-12T09:41:50.614Z,28.30
2019-05-12T09:44:25.192Z,28.90
2019-05-12T09:46:48.261Z,29.30
2019-05-12T09:49:14.475Z,29.50
2019-05-12T09:51:41.619Z,29.40
2019-05-12T09:54:08.756Z,29.40
2019-05-12T09:56:34.918Z,29.40
2019-05-12T09:59:02.905Z,29.40
2019-05-12T10:01:34.474Z,29.30
2019-05-12T10:03:57.324Z,29.20
2019-05-12T10:06:24.576Z,29.20
2019-05-12T10:08:51.055Z,29.30
2019-05-12T10:11:20.710Z,29.40
2019-05-12T10:13:45.344Z,29.60
2019-05-12T10:16:13.331Z,29.90
2019-05-12T10:18:43.010Z,30.30
2019-05-12T10:21:10.020Z,30.60
2019-05-12T10:23:35.826Z,31.00
2019-05-12T10:26:09.908Z,31.20
2019-05-12T10:28:30.363Z,31.40
2019-05-12T10:30:57.013Z,31.60
2019-05-12T10:33:23.411Z,31.60
2019-05-12T10:35:49.556Z,31.50
2019-05-12T10:38:15.971Z,31.40
2019-05-12T10:40:44.246Z,31.40
2019-05-12T10:43:10.233Z,31.30
2019-05-12T10:45:36.449Z,31.30
2019-05-12T10:48:04.209Z,31.10
2019-05-12T10:50:30.458Z,30.90
2019-05-12T10:52:56.597Z,30.90
2019-05-12T10:55:23.943Z,31.00
2019-05-12T10:57:52.914Z,31.10
2019-05-12T11:00:24.544Z,31.00
2019-05-12T11:02:46.495Z,30.80
2019-05-12T11:05:21.113Z,30.50
2019-05-12T11:10:16.396Z,30.20
2019-05-12T11:12:39.593Z,30.10
2019-05-12T11:15:08.520Z,30.00
2019-05-12T11:17:40.190Z,29.80
2019-05-12T11:20:07.038Z,29.80
2019-05-12T11:22:33.400Z,29.70
2019-05-12T11:24:59.674Z,29.70
2019-05-12T11:27:25.814Z,29.50
2019-05-12T11:29:53.419Z,29.30
2019-05-12T11:32:19.796Z,29.20
2019-05-12T11:34:46.032Z,29.00
2019-05-12T11:37:13.887Z,28.80
2019-05-12T11:39:44.643Z,28.70
2019-05-12T11:42:08.300Z,28.50
2019-05-12T11:44:41.203Z,28.60
2019-05-12T11:47:07.425Z,28.60
2019-05-12T11:49:33.698Z,28.60
2019-05-12T11:52:01.125Z,28.40
2019-05-12T11:54:28.162Z,28.20
2019-05-12T11:56:54.517Z,28.10
2019-05-12T11:59:20.678Z,28.00
2019-05-12T12:01:50.468Z,28.00
2019-05-12T12:04:16.118Z,28.10
2019-05-12T12:06:43.836Z,28.10
2019-05-12T12:09:15.306Z,28.00
2019-05-12T12:11:38.627Z,28.00
2019-05-12T12:14:06.446Z,27.90
2019-05-12T12:16:34.102Z,27.80
2019-05-12T12:19:02.629Z,27.70
2019-05-12T12:21:31.776Z,27.50
2019-05-12T12:23:57.251Z,27.40
2019-05-12T12:26:30.272Z,27.30
2019-05-12T12:28:54.671Z,27.20
2019-05-12T12:31:20.875Z,27.20
2019-05-12T12:33:47.332Z,27.10
2019-05-12T12:36:14.534Z,27.00
2019-05-12T12:38:40.871Z,26.90
2019-05-12T12:41:07.065Z,26.80
2019-05-12T12:43:33.221Z,26.70
2019-05-12T12:46:21.289Z,26.50
2019-05-12T12:48:44.613Z,26.40
2019-05-12T12:51:10.893Z,26.30
2019-05-12T12:53:37.064Z,26.20
2019-05-12T12:56:04.381Z,26.10
2019-05-12T12:58:31.541Z,26.10
2019-05-12T13:00:59.163Z,26.00
2019-05-12T13:03:29.656Z,26.00
2019-05-12T13:05:54.243Z,25.90
2019-05-12T13:08:22.392Z,25.80
2019-05-12T13:10:51.400Z,25.80
2019-05-12T13:13:16.787Z,25.70
2019-05-12T13:15:44.383Z,25.70
2019-05-12T13:18:18.057Z,25.60
2019-05-12T13:20:38.856Z,25.50
2019-05-12T13:23:05.170Z,25.40
2019-05-12T13:25:33.524Z,25.20
2019-05-12T13:28:01.526Z,25.10
2019-05-12T13:30:27.889Z,24.90
2019-05-12T13:32:54.454Z,24.80
2019-05-12T13:35:20.621Z,24.70
2019-05-12T13:37:50.325Z,24.60
2019-05-12T13:40:15.373Z,24.40
2019-05-12T13:42:43.644Z,24.40
2019-05-12T13:45:13.165Z,24.30
2019-05-12T13:47:39.981Z,24.20
2019-05-12T13:50:06.857Z,24.10
2019-05-12T13:52:33.358Z,24.10
2019-05-12T13:55:00.142Z,24.00
2019-05-12T13:57:27.672Z,23.90
2019-05-12T14:00:04.194Z,23.90
2019-05-12T14:02:23.436Z,23.90
2019-05-12T14:04:50.047Z,23.90
2019-05-12T14:07:20.125Z,23.80
2019-05-12T14:09:44.430Z,23.80
2019-05-12T14:12:10.654Z,23.80
2019-05-12T14:14:36.794Z,23.70
2019-05-12T14:17:04.126Z,23.70
2019-05-12T14:19:35.420Z,23.70
2019-05-12T14:21:58.667Z,23.70
2019-05-12T14:24:24.887Z,23.60
2019-05-12T14:26:53.220Z,23.60
2019-05-12T14:29:20.433Z,23.50
2019-05-12T14:31:55.031Z,23.40
2019-05-12T14:34:18.888Z,23.40
2019-05-12T14:36:43.417Z,23.30
2019-05-12T14:39:10.426Z,23.20
2019-05-12T14:41:36.759Z,23.20
2019-05-12T14:44:03.665Z,23.10
2019-05-12T14:46:30.002Z,23.00
2019-05-12T14:48:56.203Z,22.90
2019-05-12T14:51:24.428Z,22.80
2019-05-12T14:53:50.766Z,22.80
2019-05-12T14:56:17.004Z,22.70
2019-05-12T14:58:44.211Z,22.70
2019-05-12T15:01:10.478Z,22.70
2019-05-12T15:03:36.735Z,22.60
2019-05-12T15:06:03.775Z,22.60
2019-05-12T15:08:36.110Z,22.60
2019-05-12T15:10:59.511Z,22.50
2019-05-12T15:13:25.711Z,22.50
2019-05-12T15:15:56.048Z,22.50
2019-05-12T15:18:20.023Z,22.50
2019-05-12T15:20:49.897Z,22.40
2019-05-12T15:23:14.566Z,22.50
2019-05-12T15:25:43.143Z,22.40
2019-05-12T15:28:08.842Z,22.40
2019-05-12T15:30:35.086Z,22.40
2019-05-12T15:33:01.204Z,22.40
2019-05-12T15:35:27.413Z,22.30
2019-05-12T15:37:55.158Z,22.30
2019-05-12T15:40:23.575Z,22.30
2019-05-12T15:42:49.589Z,22.20
2019-05-12T15:45:16.807Z,22.20
2019-05-12T15:47:44.595Z,22.10
2019-05-12T15:50:14.337Z,22.20
2019-05-12T15:52:42.405Z,22.10
2019-05-12T15:55:08.595Z,22.10
2019-05-12T15:57:34.754Z,22.10
2019-05-12T16:00:01.464Z,22.10
2019-05-12T16:02:27.594Z,22.10
2019-05-12T16:04:55.008Z,22.10
2019-05-12T16:07:21.272Z,22.00
2019-05-12T16:09:47.893Z,22.00
2019-05-12T16:12:21.948Z,22.00
2019-05-12T16:14:44.184Z,22.00
2019-05-12T16:17:10.339Z,22.00
2019-05-12T16:19:36.921Z,22.00
2019-05-12T16:22:03.693Z,22.00
2019-05-12T16:24:30.096Z,22.00
2019-05-12T16:26:56.236Z,22.00
2019-05-12T16:29:23.234Z,21.90
2019-05-12T16:31:50.088Z,21.90
2019-05-12T16:34:16.279Z,21.90
2019-05-12T16:36:47.528Z,21.80
2019-05-12T16:39:10.530Z,21.80
2019-05-12T16:41:36.736Z,21.70
2019-05-12T16:44:07.897Z,21.70
2019-05-12T16:46:33.880Z,21.60
2019-05-12T16:48:59.481Z,21.50
2019-05-12T16:51:25.751Z,21.50
2019-05-12T16:53:53.875Z,21.40
2019-05-12T16:56:27.960Z,21.30
2019-05-12T16:58:51.317Z,21.20
2019-05-12T17:01:19.408Z,21.10
2019-05-12T17:03:45.617Z,21.00
2019-05-12T17:06:13.718Z,20.90
2019-05-12T17:08:40.221Z,20.90
2019-05-12T17:11:22.979Z,20.80
2019-05-12T17:13:34.475Z,20.70
2019-05-12T17:16:00.692Z,20.70
2019-05-12T17:18:26.829Z,20.60
2019-05-12T17:20:54.526Z,20.60
2019-05-12T17:23:21.057Z,20.50
2019-05-12T17:25:47.574Z,20.50
2019-05-12T17:28:13.714Z,20.40
2019-05-12T17:30:40.238Z,20.40
2019-05-12T17:33:06.394Z,20.30
2019-05-12T17:35:34.975Z,20.30
2019-05-12T17:38:00.626Z,20.20
2019-05-12T17:40:26.781Z,20.20
2019-05-12T17:42:57.527Z,20.20
2019-05-12T17:45:23.367Z,20.10
2019-05-12T17:47:49.264Z,20.00
2019-05-12T17:50:15.402Z,20.00
2019-05-12T17:52:41.705Z,19.90
2019-05-12T17:55:10.699Z,19.80
2019-05-12T17:57:36.282Z,19.80
2019-05-12T18:00:10.551Z,19.80
2019-05-12T18:02:35.334Z,19.70
2019-05-12T18:05:10.069Z,19.60
2019-05-12T18:07:29.819Z,19.60
2019-05-12T18:10:00.480Z,19.50
2019-05-12T18:12:26.718Z,19.50
2019-05-12T18:14:52.477Z,19.40
2019-05-12T18:17:18.739Z,19.40
2019-05-12T18:19:44.949Z,19.30
2019-05-12T18:22:11.222Z,19.30
2019-05-12T18:24:40.887Z,19.20
2019-05-12T18:27:07.807Z,19.10
2019-05-12T18:29:33.522Z,19.00
2019-05-12T18:31:59.756Z,19.00
2019-05-12T18:34:26.011Z,18.90
2019-05-12T18:36:58.080Z,18.90
2019-05-12T18:39:20.730Z,18.80
2019-05-12T18:41:47.261Z,18.80
2019-05-12T18:44:15.927Z,18.70
2019-05-12T18:46:44.950Z,18.60
2019-05-12T18:49:12.838Z,18.60
2019-05-12T18:51:37.848Z,18.50
2019-05-12T18:54:10.071Z,18.50
2019-05-12T18:56:33.606Z,18.40
2019-05-12T18:59:05.112Z,18.30
2019-05-12T19:01:28.098Z,18.30
2019-05-12T19:03:54.906Z,18.20
2019-05-12T19:06:23.253Z,18.10
2019-05-12T19:08:49.426Z,18.10
2019-05-12T19:11:22.583Z,18.00
2019-05-12T19:13:51.651Z,18.00
2019-05-12T19:16:14.245Z,17.90
2019-05-12T19:18:40.554Z,17.80
2019-05-12T19:21:10.102Z,17.80
2019-05-12T19:23:37.644Z,17.70
2019-05-12T19:26:04.234Z,17.60
2019-05-12T19:28:30.834Z,17.60
2019-05-12T19:31:00.951Z,17.50
2019-05-12T19:33:25.879Z,17.40
2019-05-12T19:35:59.705Z,17.40
2019-05-12T19:38:20.884Z,17.30
2019-05-12T19:40:55.037Z,17.30
2019-05-12T19:43:15.182Z,17.20
2019-05-12T19:45:43.528Z,17.20
2019-05-12T19:48:23.213Z,17.20
2019-05-12T19:50:37.835Z,17.10
2019-05-12T19:53:04.313Z,17.10
2019-05-12T19:55:30.544Z,17.10
2019-05-12T19:57:56.741Z,17.10
2019-05-12T20:00:23.105Z,17.00
2019-05-12T20:02:49.412Z,17.00
2019-05-12T20:05:17.616Z,17.00
2019-05-12T20:07:44.718Z,17.00
2019-05-12T20:10:15.492Z,16.90
2019-05-12T20:12:39.843Z,16.90
2019-05-12T20:15:07.183Z,16.90
2019-05-12T20:17:34.057Z,16.90
2019-05-12T20:20:00.800Z,16.80
2019-05-12T20:22:26.992Z,16.80
2019-05-12T20:24:53.811Z,16.80
2019-05-12T20:27:21.957Z,16.80
2019-05-12T20:29:48.482Z,16.80
2019-05-12T20:32:14.616Z,16.70
2019-05-12T20:34:49.125Z,16.70
2019-05-12T20:37:14.302Z,16.70
2019-05-12T20:39:37.067Z,16.70
2019-05-12T20:42:05.204Z,16.60
2019-05-12T20:44:31.308Z,16.60
2019-05-12T20:47:01.461Z,16.60
2019-05-12T20:49:25.552Z,16.60
2019-05-12T20:51:54.984Z,16.60
2019-05-12T20:54:19.899Z,16.50
2019-05-12T20:56:46.357Z,16.50
2019-05-12T20:59:13.913Z,16.50
2019-05-12T21:01:40.608Z,16.50
2019-05-12T21:04:07.749Z,16.40
2019-05-12T21:06:41.746Z,16.40
2019-05-12T21:09:05.214Z,16.40
2019-05-12T21:11:33.723Z,16.40
2019-05-12T21:14:00.907Z,16.40
2019-05-12T21:16:34.721Z,16.40
2019-05-12T21:19:02.304Z,16.30
2019-05-12T21:21:25.174Z,16.30
2019-05-12T21:23:53.885Z,16.30
2019-05-12T21:26:19.940Z,16.30
2019-05-12T21:28:48.159Z,16.30
2019-05-12T21:31:14.362Z,16.20
2019-05-12T21:33:41.782Z,16.20
2019-05-12T21:36:08.363Z,16.20
2019-05-12T21:38:34.529Z,16.10
2019-05-12T21:41:02.231Z,16.10
2019-05-12T21:43:28.776Z,16.10
2019-05-12T21:45:54.989Z,16.10
2019-05-12T21:48:28.606Z,16.10
2019-05-12T21:50:49.245Z,16.00
2019-05-12T21:53:17.579Z,16.00
2019-05-12T21:55:44.383Z,16.00
2019-05-12T21:58:12.354Z,15.90
2019-05-12T22:00:50.482Z,15.90
2019-05-12T22:03:16.610Z,15.90
2019-05-12T22:05:51.462Z,15.90
2019-05-12T22:08:20.582Z,15.90
2019-05-12T22:10:40.934Z,15.80
2019-05-12T22:13:14.392Z,15.80
2019-05-12T22:15:35.570Z,15.80
2019-05-12T22:18:04.159Z,15.70
2019-05-12T22:20:34.350Z,15.70
2019-05-12T22:23:08.442Z,15.70
2019-05-12T22:25:29.701Z,15.60
2019-05-12T22:27:59.210Z,15.60
2019-05-12T22:30:24.563Z,15.60
2019-05-12T22:32:50.720Z,15.50
2019-05-12T22:35:22.133Z,15.50
2019-05-12T22:37:45.180Z,15.30
2019-05-12T22:40:17.315Z,15.30
2019-05-12T22:42:40.060Z,15.40
2019-05-12T22:45:06.511Z,15.40
2019-05-12T22:47:33.460Z,15.30
2019-05-12T22:50:00.086Z,15.30
2019-05-12T22:52:26.291Z,15.30
2019-05-12T22:54:53.808Z,15.20
2019-05-12T22:57:20.411Z,15.20
2019-05-12T22:59:46.549Z,15.20
2019-05-12T23:02:16.062Z,15.10
2019-05-12T23:04:40.812Z,15.10
2019-05-12T23:07:07.026Z,15.00
2019-05-12T23:09:34.072Z,15.00
2019-05-12T23:12:00.433Z,15.00
2019-05-12T23:14:26.570Z,15.00
2019-05-12T23:16:54.521Z,14.90
2019-05-12T23:19:20.834Z,14.90
2019-05-12T23:21:49.478Z,14.80
2019-05-12T23:24:15.177Z,14.80
2019-05-12T23:26:45.703Z,14.80
2019-05-12T23:29:09.444Z,14.70
2019-05-12T23:31:35.676Z,14.70
2019-05-12T23:34:06.545Z,14.60
2019-05-12T23:36:36.681Z,14.60
2019-05-12T23:39:02.868Z,14.60
2019-05-12T23:41:28.998Z,14.60
2019-05-12T23:43:55.448Z,14.50
2019-05-12T23:46:23.482Z,14.50
2019-05-12T23:48:49.716Z,14.50
2019-05-12T23:51:15.857Z,14.40
2019-05-12T23:53:42.471Z,14.40
2019-05-12T23:56:08.676Z,14.30
2019-05-12T23:58:34.905Z,14.30
